Time;durP1;ratioP1;P1;durP2;ratioP2;P2;SDS_P1;SDS_P2;PMS_P1;PMS_P2;Temp;Humidity;BMP_temperature;BMP_pressure;BME280_temperature;BME280_humidity;BME280_pressure;Samples;Min_cycle;Max_cycle;Signal;HPM_P1;HPM_P2
2021/03/19 00:02:14;;;;;;;109.07;24.18;;;;;;;2.85;78.20;100251.56;1757983;81;20927;-68
2021/03/19 00:04:44;;;;;;;126.72;26.45;;;;;;;2.85;78.04;100254.16;1757979;81;21504;-70
2021/03/19 00:07:12;;;;;;;87.62;22.77;;;;;;;2.84;78.02;100249.86;1757957;81;20950;-69
2021/03/19 00:09:40;;;;;;;112.35;26.25;;;;;;;2.82;77.93;100250.36;1757913;81;21452;-69
2021/03/19 00:12:08;;;;;;;102.22;25.68;;;;;;;2.80;77.92;100244.84;1757835;81;21480;-69
2021/03/19 00:14:38;;;;;;;83.20;22.50;;;;;;;2.80;77.99;100247.42;1757893;81;21492;-68
2021/03/19 00:17:07;;;;;;;89.90;22.02;;;;;;;2.79;77.91;100241.87;1757906;81;21496;-68
2021/03/19 00:19:35;;;;;;;109.75;22.80;;;;;;;2.76;77.97;100244.54;1758010;81;20950;-69
2021/03/19 00:22:03;;;;;;;89.30;26.70;;;;;;;2.73;78.05;100239.02;1757894;81;21202;-70
2021/03/19 00:24:31;;;;;;;106.97;23.98;;;;;;;2.72;78.05;100245.57;1757868;81;21069;-69
2021/03/19 00:27:00;;;;;;;102.60;23.25;;;;;;;2.67;78.01;100243.13;1757891;81;20931;-69
2021/03/19 00:29:28;;;;;;;102.97;23.73;;;;;;;2.63;78.04;100245.42;1757827;81;21022;-69
2021/03/19 00:31:56;;;;;;;83.12;21.37;;;;;;;2.63;78.12;100242.38;1757961;81;20974;-69
2021/03/19 00:34:25;;;;;;;95.95;23.52;;;;;;;2.67;78.17;100243.97;1757893;81;21380;-69
2021/03/19 00:36:54;;;;;;;101.47;23.67;;;;;;;2.67;78.17;100238.80;1757824;81;21404;-68
2021/03/19 00:39:22;;;;;;;111.37;24.25;;;;;;;2.66;78.18;100235.80;1752987;81;21475;-69
2021/03/19 00:41:51;;;;;;;96.25;23.20;;;;;;;2.65;78.17;100237.16;1750356;82;20947;-69
2021/03/19 00:44:20;;;;;;;101.67;24.12;;;;;;;2.63;78.16;100232.03;1750403;82;20986;-68
2021/03/19 00:46:48;;;;;;;100.62;25.52;;;;;;;2.63;78.04;100230.73;1750414;82;21416;-69
2021/03/19 00:49:17;;;;;;;89.28;25.55;;;;;;;2.65;78.06;100234.57;1750290;82;21276;-70
2021/03/19 00:51:46;;;;;;;98.40;21.73;;;;;;;2.66;77.90;100230.62;1749917;82;21353;-68
2021/03/19 00:54:14;;;;;;;112.12;25.95;;;;;;;2.67;77.90;100236.20;1749844;82;21353;-69
2021/03/19 00:56:43;;;;;;;105.05;24.12;;;;;;;2.66;78.01;100236.25;1749875;82;21476;-69
2021/03/19 00:59:11;;;;;;;103.87;24.92;;;;;;;2.67;77.87;100241.84;1749789;82;21396;-69
2021/03/19 01:01:40;;;;;;;98.33;24.18;;;;;;;2.68;77.76;100235.75;1749787;82;20994;-69
2021/03/19 01:04:08;;;;;;;101.22;26.87;;;;;;;2.65;77.71;100234.57;1749835;82;21046;-68
2021/03/19 01:06:36;;;;;;;95.77;28.77;;;;;;;2.64;77.74;100238.88;1749885;82;21333;-70
2021/03/19 01:09:06;;;;;;;82.70;22.00;;;;;;;2.63;77.65;100238.95;1749864;82;21376;-69
2021/03/19 01:11:33;;;;;;;96.95;23.18;;;;;;;2.62;77.71;100245.88;1749856;82;21215;-70
2021/03/19 01:14:03;;;;;;;102.97;23.67;;;;;;;2.59;77.86;100250.30;1749788;82;21012;-70
2021/03/19 01:16:34;;;;;;;90.70;22.35;;;;;;;2.58;77.91;100250.76;1749783;82;21441;-69
2021/03/19 01:19:03;;;;;;;99.77;24.43;;;;;;;2.57;77.87;100245.62;1749787;82;20899;-68
2021/03/19 01:21:33;;;;;;;79.70;21.23;;;;;;;2.59;77.83;100242.08;1749932;82;21357;-68
2021/03/19 01:24:01;;;;;;;96.85;24.07;;;;;;;2.57;77.75;100241.28;1749837;82;21386;-68
2021/03/19 01:26:29;;;;;;;95.07;22.50;;;;;;;2.56;77.68;100245.23;1749829;82;21479;-67
2021/03/19 01:28:59;;;;;;;89.42;23.15;;;;;;;2.60;77.73;100244.21;1749835;82;21007;-69
2021/03/19 01:31:27;;;;;;;98.70;23.05;;;;;;;2.61;77.67;100244.17;1749829;82;20930;-68
2021/03/19 01:33:55;;;;;;;78.10;22.40;;;;;;;2.58;77.70;100246.87;1749800;82;20948;-68
2021/03/19 01:36:23;;;;;;;78.20;20.85;;;;;;;2.58;77.80;100250.76;1749939;82;21347;-68
2021/03/19 01:38:51;;;;;;;79.92;21.52;;;;;;;2.56;77.79;100253.84;1750471;81;21049;-69
2021/03/19 01:41:19;;;;;;;82.50;22.07;;;;;;;2.56;77.65;100253.00;1752427;81;21050;-68
2021/03/19 01:44:07;;;;;;;74.00;20.00;;;;;;;2.58;77.51;100259.81;1752541;81;21503;-70
2021/03/19 01:47:31;;;;;;;84.77;20.23;;;;;;;2.60;77.33;100256.73;1752462;81;20918;-69
2021/03/19 01:50:56;;;;;;;106.00;21.10;;;;;;;2.62;77.36;100252.77;1752732;81;21396;-68
2021/03/19 01:54:20;;;;;;;76.00;17.98;;;;;;;2.60;77.35;100258.45;1752408;81;20978;-70
2021/03/19 01:57:45;;;;;;;78.50;20.77;;;;;;;2.61;77.29;100257.57;1752439;81;21002;-69
2021/03/19 02:01:10;;;;;;;72.85;19.48;;;;;;;2.56;77.24;100260.31;1752402;81;20919;-69
2021/03/19 02:04:34;;;;;;;88.60;21.33;;;;;;;2.51;77.21;100261.34;1752468;81;21023;-71
2021/03/19 02:07:58;;;;;;;63.52;19.92;;;;;;;2.47;77.30;100265.80;1752561;81;21217;-70
2021/03/19 02:11:23;;;;;;;85.90;18.90;;;;;;;2.43;77.38;100268.08;1752460;81;21397;-70
2021/03/19 02:14:47;;;;;;;76.12;20.02;;;;;;;2.41;77.44;100260.35;1752433;81;21026;-69
2021/03/19 02:18:12;;;;;;;71.53;18.60;;;;;;;2.41;77.61;100267.27;1752449;81;21060;-69
2021/03/19 02:21:37;;;;;;;88.00;20.12;;;;;;;2.39;77.57;100273.78;1752507;81;21606;-69
2021/03/19 02:25:00;;;;;;;71.25;18.23;;;;;;;2.36;77.56;100272.60;1752508;81;21382;-68
2021/03/19 02:28:24;;;;;;;75.62;19.45;;;;;;;2.31;77.44;100274.47;1752445;81;21637;-67
2021/03/19 02:31:13;;;;;;;78.65;20.20;;;;;;;2.26;77.47;100280.23;1752415;81;20978;-68
2021/03/19 02:33:57;;;;;;;53.00;15.78;;;;;;;2.18;77.79;100280.48;1752415;81;21034;-68
2021/03/19 02:36:28;;;;;;;79.05;21.17;;;;;;;2.17;77.88;100279.23;1752606;81;21516;-68
2021/03/19 02:38:56;;;;;;;72.40;18.27;;;;;;;2.18;78.01;100283.50;1752007;81;22287;-68
2021/03/19 02:41:24;;;;;;;59.08;18.77;;;;;;;2.22;77.95;100285.10;1749779;82;20974;-69
2021/03/19 02:43:52;;;;;;;79.85;20.37;;;;;;;2.23;77.77;100286.81;1749740;82;20979;-69
2021/03/19 02:46:20;;;;;;;61.50;19.05;;;;;;;2.23;77.70;100289.40;1749735;82;20990;-70
2021/03/19 02:48:48;;;;;;;77.27;19.67;;;;;;;2.22;77.65;100291.57;1749745;82;20986;-69
2021/03/19 02:51:16;;;;;;;87.85;20.20;;;;;;;2.18;77.68;100288.67;1749889;82;22308;-69
2021/03/19 02:53:44;;;;;;;68.65;16.93;;;;;;;2.18;77.65;100302.48;1749771;82;20916;-68
2021/03/19 02:56:13;;;;;;;77.95;18.87;;;;;;;2.16;77.70;100303.42;1749750;82;21006;-69
2021/03/19 02:58:41;;;;;;;72.58;17.05;;;;;;;2.16;77.79;100298.25;1749800;82;21475;-68
2021/03/19 03:01:09;;;;;;;66.35;17.52;;;;;;;2.15;77.85;100303.01;1749798;82;20970;-68
2021/03/19 03:03:38;;;;;;;73.90;16.17;;;;;;;2.18;77.80;100305.48;1749822;82;21380;-69
2021/03/19 03:06:06;;;;;;;76.15;18.07;;;;;;;2.21;77.67;100309.30;1749688;82;20963;-68
2021/03/19 03:08:34;;;;;;;79.17;17.85;;;;;;;2.21;77.43;100311.43;1749757;82;21369;-68
2021/03/19 03:11:03;;;;;;;77.30;19.92;;;;;;;2.22;77.41;100321.32;1749730;82;21086;-68
2021/03/19 03:13:31;;;;;;;74.92;17.52;;;;;;;2.19;77.36;100317.09;1749769;82;21022;-68
2021/03/19 03:16:01;;;;;;;73.83;18.80;;;;;;;2.18;77.32;100319.72;1749797;82;21344;-69
2021/03/19 03:18:30;;;;;;;61.53;17.35;;;;;;;2.15;77.42;100321.95;1749761;82;21388;-68
2021/03/19 03:21:00;;;;;;;79.62;19.05;;;;;;;2.16;77.35;100324.95;1749743;82;21006;-70
2021/03/19 03:23:28;;;;;;;62.93;15.78;;;;;;;2.16;77.20;100324.95;1749696;82;21638;-69
2021/03/19 03:25:56;;;;;;;69.80;18.98;;;;;;;2.15;77.19;100330.17;1749908;82;21488;-69
2021/03/19 03:28:25;;;;;;;64.62;17.80;;;;;;;2.14;77.14;100325.91;1749807;82;21214;-69
2021/03/19 03:30:57;;;;;;;63.60;17.98;;;;;;;2.14;77.18;100334.50;1749745;82;21492;-70
2021/03/19 03:33:25;;;;;;;71.70;19.05;;;;;;;2.14;77.09;100337.54;1749788;82;20946;-69
2021/03/19 03:35:55;;;;;;;71.37;19.77;;;;;;;2.13;77.08;100339.71;1749788;82;20951;-69
2021/03/19 03:38:25;;;;;;;76.80;19.05;;;;;;;2.13;77.07;100336.67;1749828;82;21341;-70
2021/03/19 03:40:58;;;;;;;53.00;15.38;;;;;;;2.16;76.99;100338.34;1751971;82;21345;-69
2021/03/19 03:43:26;;;;;;;65.15;17.75;;;;;;;2.20;76.80;100340.79;1752335;81;20978;-71
2021/03/19 03:45:54;;;;;;;63.25;19.27;;;;;;;2.21;76.82;100342.92;1752485;81;21030;-70
2021/03/19 03:48:25;;;;;;;62.67;17.50;;;;;;;2.19;76.64;100342.13;1752363;81;20951;-67
2021/03/19 03:50:57;;;;;;;67.27;17.12;;;;;;;2.18;76.55;100348.17;1752421;81;20947;-68
2021/03/19 03:53:24;;;;;;;64.30;20.15;;;;;;;2.14;76.52;100356.94;1752413;82;22107;-68
2021/03/19 03:55:53;;;;;;;52.90;16.27;;;;;;;2.11;76.67;100351.84;1752336;81;20975;-69
2021/03/19 03:58:21;;;;;;;64.27;16.75;;;;;;;2.11;76.73;100351.84;1752325;81;21010;-68
2021/03/19 04:00:50;;;;;;;65.90;17.12;;;;;;;2.10;76.71;100357.47;1752302;81;20987;-68
2021/03/19 04:03:19;;;;;;;64.70;17.92;;;;;;;2.11;76.62;100363.48;1752366;81;21014;-70
2021/03/19 04:05:47;;;;;;;78.97;17.02;;;;;;;2.11;76.59;100369.49;1752392;82;21338;-69
2021/03/19 04:08:20;;;;;;;67.92;17.95;;;;;;;2.10;76.63;100364.38;1752465;81;20919;-70
2021/03/19 04:10:49;;;;;;;63.13;15.68;;;;;;;2.12;76.59;100367.77;1752449;82;21030;-67
2021/03/19 04:13:19;;;;;;;72.30;16.30;;;;;;;2.11;76.54;100366.06;1752398;82;21006;-68
2021/03/19 04:15:50;;;;;;;58.33;17.98;;;;;;;2.11;76.67;100372.08;1752399;82;21503;-70
2021/03/19 04:18:18;;;;;;;66.30;17.40;;;;;;;2.13;76.76;100375.47;1752371;81;21785;-68
2021/03/19 04:20:49;;;;;;;68.60;17.35;;;;;;;2.16;76.71;100377.98;1752324;82;21418;-70
2021/03/19 04:23:19;;;;;;;57.33;17.17;;;;;;;2.18;76.59;100380.50;1752268;81;21542;-70
2021/03/19 04:25:47;;;;;;;72.50;17.98;;;;;;;2.17;76.53;100378.83;1752520;81;20931;-70
2021/03/19 04:28:17;;;;;;;86.53;17.60;;;;;;;2.17;76.38;100375.78;1752539;81;20951;-69
2021/03/19 04:30:45;;;;;;;63.45;15.98;;;;;;;2.17;76.24;100378.83;1752581;81;21523;-70
2021/03/19 04:33:19;;;;;;;59.88;16.50;;;;;;;2.14;76.35;100373.75;1752532;81;21503;-69
2021/03/19 04:35:58;;;;;;;57.45;13.98;;;;;;;2.13;76.36;100377.22;1752823;81;20939;-69
2021/03/19 04:38:25;;;;;;;66.00;15.68;;;;;;;2.10;76.37;100378.16;1719152;83;20985;-69
2021/03/19 04:40:55;;;;;;;60.43;16.93;;;;;;;2.10;76.52;100385.08;1723356;83;21033;-69
2021/03/19 04:43:23;;;;;;;72.72;16.62;;;;;;;2.10;76.37;100385.91;1725079;83;21388;-67
2021/03/19 04:45:51;;;;;;;73.12;16.15;;;;;;;2.08;76.40;100388.98;1724467;83;20996;-68
2021/03/19 04:48:20;;;;;;;62.55;15.80;;;;;;;2.06;76.45;100394.20;1724223;83;21032;-68
2021/03/19 04:50:49;;;;;;;75.72;16.45;;;;;;;2.08;76.34;100391.58;1724131;83;21060;-70
2021/03/19 04:53:18;;;;;;;67.15;16.12;;;;;;;2.08;76.30;100405.34;1724237;83;21127;-70
2021/03/19 04:55:48;;;;;;;69.22;16.10;;;;;;;2.10;76.38;100403.18;1724113;83;21441;-69
2021/03/19 04:58:16;;;;;;;66.17;15.38;;;;;;;2.12;76.47;100409.16;1724063;83;20977;-69
2021/03/19 05:00:44;;;;;;;72.32;17.12;;;;;;;2.14;76.36;100399.17;1724171;83;21068;-69
2021/03/19 05:03:12;;;;;;;67.60;15.72;;;;;;;2.19;76.19;100402.45;1724098;83;21008;-69
2021/03/19 05:05:40;;;;;;;57.48;15.78;;;;;;;2.20;76.08;100396.83;1724150;83;20917;-70
2021/03/19 05:08:09;;;;;;;59.35;15.23;;;;;;;2.22;75.98;100401.52;1724101;83;21216;-69
2021/03/19 05:10:37;;;;;;;68.37;15.40;;;;;;;2.28;75.77;100406.52;1724082;83;21115;-70
2021/03/19 05:13:06;;;;;;;63.92;13.70;;;;;;;2.32;75.75;100407.29;1724110;83;20905;-71
2021/03/19 05:15:37;;;;;;;58.83;13.70;;;;;;;2.35;75.72;100410.62;1740529;81;20962;-70
2021/03/19 05:18:05;;;;;;;62.70;14.83;;;;;;;2.39;75.66;100410.93;1757591;81;20950;-70
2021/03/19 05:20:34;;;;;;;67.08;15.75;;;;;;;2.40;75.42;100413.06;1757564;81;21426;-71
2021/03/19 05:23:02;;;;;;;61.33;14.45;;;;;;;2.41;75.40;100411.73;1757607;81;21396;-69
2021/03/19 05:25:31;;;;;;;73.65;16.32;;;;;;;2.42;75.40;100412.58;1757574;81;21554;-69
2021/03/19 05:27:59;;;;;;;48.90;15.80;;;;;;;2.43;75.37;100411.25;1757722;81;21609;-72
2021/03/19 05:30:28;;;;;;;53.28;15.38;;;;;;;2.43;75.28;100409.95;1757655;81;20954;-69
2021/03/19 05:33:03;;;;;;;56.85;14.80;;;;;;;2.45;75.21;100415.93;1757798;81;21206;-72
2021/03/19 05:35:31;;;;;;;62.53;14.00;;;;;;;2.47;75.26;100423.20;1731029;81;20958;-72
2021/03/19 05:38:03;;;;;;;68.20;16.67;;;;;;;2.51;75.39;100417.92;1757384;81;21029;-74
2021/03/19 05:40:46;;;;;;;55.35;13.70;;;;;;;2.57;75.40;100423.77;1753909;81;21034;-73
2021/03/19 05:43:28;;;;;;;73.90;16.50;;;;;;;2.63;75.07;100424.05;1749424;82;20947;-72
2021/03/19 05:46:13;;;;;;;59.85;15.00;;;;;;;2.69;74.69;100426.00;1749725;82;21382;-73
2021/03/19 05:49:09;;;;;;;57.88;16.35;;;;;;;2.72;74.62;100435.41;1749789;82;21022;-72
2021/03/19 05:51:47;;;;;;;49.58;16.02;;;;;;;2.72;74.40;100438.45;1749769;82;21101;-72
2021/03/19 05:54:39;;;;;;;58.60;14.53;;;;;;;2.75;74.37;100437.05;1749308;82;20950;-71
2021/03/19 05:57:24;;;;;;;67.82;17.95;;;;;;;2.77;74.32;100442.58;1749841;82;21389;-73
2021/03/19 05:59:56;;;;;;;49.80;14.20;;;;;;;2.80;74.15;100443.80;1749873;82;21388;-79
2021/03/19 06:02:34;;;;;;;67.80;15.03;;;;;;;2.80;74.08;100450.27;1749779;82;21026;-74
2021/03/19 06:05:20;;;;;;;58.50;14.15;;;;;;;2.83;74.10;100454.50;1749881;82;20955;-71
2021/03/19 06:07:56;;;;;;;57.35;15.93;;;;;;;2.85;73.91;100457.90;1749869;82;21147;-72
2021/03/19 06:10:40;;;;;;;64.90;16.67;;;;;;;2.81;74.01;100461.02;1749669;81;20919;-74
2021/03/19 06:13:25;;;;;;;63.80;17.10;;;;;;;2.80;74.05;100456.75;1749779;82;21484;-71
2021/03/19 06:15:57;;;;;;;67.20;15.13;;;;;;;2.83;73.88;100462.27;1748971;82;21380;-71
2021/03/19 06:18:42;;;;;;;84.85;17.55;;;;;;;2.87;73.78;100456.11;1745896;82;21042;-72
2021/03/19 06:21:30;;;;;;;60.17;15.28;;;;;;;2.94;73.70;100463.24;1749860;82;21558;-72
2021/03/19 06:24:20;;;;;;;62.20;14.85;;;;;;;3.07;73.52;100471.03;1749800;82;21050;-71
2021/03/19 06:26:49;;;;;;;74.92;18.90;;;;;;;3.16;73.10;100469.44;1749771;82;21424;-72
2021/03/19 06:29:48;;;;;;;57.73;14.78;;;;;;;3.20;72.71;100466.28;1749692;82;21563;-72
2021/03/19 06:32:24;;;;;;;59.27;15.38;;;;;;;3.21;72.37;100474.02;1749822;82;20953;-71
2021/03/19 06:35:02;;;;;;;62.48;15.53;;;;;;;3.18;72.02;100469.37;1749719;82;21010;-71
2021/03/19 06:37:39;;;;;;;69.15;16.50;;;;;;;3.21;72.23;100468.00;1749759;82;21034;-71
2021/03/19 06:40:31;;;;;;;50.08;14.78;;;;;;;3.25;72.49;100465.25;1749636;82;21388;-70
2021/03/19 06:43:29;;;;;;;68.72;16.25;;;;;;;3.31;72.41;100464.19;1749649;82;21479;-70
2021/03/19 06:46:23;;;;;;;62.00;16.25;;;;;;;3.41;72.11;100475.97;1687843;84;20970;-71
2021/03/19 06:49:06;;;;;;;76.37;18.70;;;;;;;3.58;71.32;100472.83;1873818;76;28063;-71
2021/03/19 06:51:37;;;;;;;55.48;18.00;;;;;;;3.59;71.73;100475.80;1860980;77;20926;-72
2021/03/19 06:54:19;;;;;;;57.65;15.20;;;;;;;3.71;71.24;100481.89;1823191;78;21190;-72
2021/03/19 06:57:08;;;;;;;70.55;18.77;;;;;;;3.76;71.06;100480.86;1823086;77;20950;-72
2021/03/19 06:59:49;;;;;;;65.80;18.27;;;;;;;3.81;70.88;100485.00;1807665;79;20938;-71
2021/03/19 07:02:45;;;;;;;53.38;16.12;;;;;;;3.84;70.41;100481.00;1817948;79;21481;-74
2021/03/19 07:05:49;;;;;;;61.23;17.85;;;;;;;3.82;70.01;100485.84;1818074;79;20891;-72
2021/03/19 07:08:29;;;;;;;64.05;16.37;;;;;;;3.76;69.97;100493.83;1817927;79;21371;-73
2021/03/19 07:11:06;;;;;;;68.45;16.57;;;;;;;3.73;69.85;100494.78;1817942;79;20907;-71
2021/03/19 07:14:17;;;;;;;74.47;19.42;;;;;;;3.72;70.03;100503.02;1817973;79;20918;-71
2021/03/19 07:17:08;;;;;;;73.57;17.55;;;;;;;3.71;70.11;100497.45;1817964;77;21002;-71
2021/03/19 07:20:19;;;;;;;72.87;18.00;;;;;;;3.74;70.09;100499.92;1817867;77;20915;-71
2021/03/19 07:23:15;;;;;;;64.62;16.87;;;;;;;3.81;70.24;100496.67;1817906;77;21366;-72
2021/03/19 07:26:18;;;;;;;70.83;18.65;;;;;;;3.92;70.39;100495.02;1730375;81;21709;-71
2021/03/19 07:29:27;;;;;;;71.33;19.60;;;;;;;3.98;70.12;100493.94;1777258;80;20942;-72
2021/03/19 07:32:26;;;;;;;75.80;17.70;;;;;;;3.95;69.48;100505.28;1777312;80;20962;-71
2021/03/19 07:35:11;;;;;;;66.53;18.52;;;;;;;3.90;69.54;100500.25;1777321;80;21429;-72
2021/03/19 07:37:53;;;;;;;73.83;17.37;;;;;;;3.95;69.98;100502.68;1847787;76;22696;-72
2021/03/19 07:40:38;;;;;;;68.67;17.92;;;;;;;3.98;70.21;100510.80;1817992;79;21400;-71
2021/03/19 07:43:39;;;;;;;51.60;16.05;;;;;;;4.05;70.17;100509.72;1818091;79;21351;-72
2021/03/19 07:46:37;;;;;;;71.62;17.70;;;;;;;4.12;69.32;100513.33;1817960;77;20949;-72
2021/03/19 07:49:52;;;;;;;89.60;20.80;;;;;;;4.19;69.12;100515.72;1817876;79;21001;-71
2021/03/19 07:52:34;;;;;;;61.42;17.30;;;;;;;4.31;69.29;100524.34;1817878;79;21041;-72
2021/03/19 07:55:24;;;;;;;66.70;18.65;;;;;;;4.46;69.09;100516.47;1818004;78;21030;-72
2021/03/19 07:58:04;;;;;;;53.78;15.83;;;;;;;4.55;68.41;100520.02;1817989;79;21452;-72
2021/03/19 08:00:36;;;;;;;59.25;16.85;;;;;;;4.62;68.11;100512.85;1817902;78;20982;-68
2021/03/19 08:03:21;;;;;;;58.25;16.10;;;;;;;4.73;67.62;100519.79;1818048;77;20994;-70
2021/03/19 08:05:54;;;;;;;56.88;18.07;;;;;;;4.87;67.62;100516.23;1817905;78;20934;-71
2021/03/19 08:08:44;;;;;;;68.33;17.62;;;;;;;4.99;67.43;100522.25;1818102;79;21590;-72
2021/03/19 08:11:18;;;;;;;52.90;17.23;;;;;;;5.14;67.71;100523.88;1817896;77;21364;-70
2021/03/19 08:13:56;;;;;;;82.88;18.95;;;;;;;5.31;67.09;100526.63;1818041;79;20911;-70
2021/03/19 08:16:33;;;;;;;49.30;15.72;;;;;;;5.47;66.78;100523.42;1817855;79;20927;-71
2021/03/19 08:19:52;;;;;;;60.45;16.40;;;;;;;5.66;66.21;100528.73;1817590;79;21057;-69
2021/03/19 08:22:34;;;;;;;56.08;16.62;;;;;;;5.76;64.96;100536.11;1817410;79;21005;-70
2021/03/19 08:25:19;;;;;;;60.10;16.50;;;;;;;5.80;65.00;100538.11;1806674;79;22515;-71
2021/03/19 08:27:56;;;;;;;;;;;;;;;5.86;64.62;100543.06;1820561;79;20899;-70
2021/03/19 08:30:49;;;;;;;56.68;17.17;;;;;;;5.96;63.80;100548.31;1787159;79;20113;-70
2021/03/19 08:33:52;;;;;;;48.92;16.93;;;;;;;6.01;63.38;100546.82;1817967;77;20946;-70
2021/03/19 08:36:43;;;;;;;50.70;17.65;;;;;;;6.01;63.43;100543.75;1821920;78;20970;-71
2021/03/19 08:39:45;;;;;;;52.00;15.95;;;;;;;6.01;63.46;100543.75;1832951;78;21362;-70
2021/03/19 08:42:17;;;;;;;71.30;16.55;;;;;;;6.05;62.51;100549.69;1832911;78;20953;-69
2021/03/19 08:44:46;;;;;;;53.98;15.55;;;;;;;6.05;63.06;100551.42;1832971;77;21483;-70
2021/03/19 08:47:34;;;;;;;49.15;17.17;;;;;;;6.14;62.97;100555.80;1831998;78;21049;-69
2021/03/19 08:50:33;;;;;;;55.25;16.60;;;;;;;6.26;62.41;100558.80;1832504;78;21340;-72
2021/03/19 08:53:13;;;;;;;71.07;16.40;;;;;;;6.34;61.73;100556.71;1832381;78;21808;-70
2021/03/19 08:56:06;;;;;;;61.90;16.42;;;;;;;6.33;60.48;100553.70;1832283;77;20989;-70
2021/03/19 08:58:48;;;;;;;51.33;18.27;;;;;;;6.35;60.91;100553.18;1832431;78;21369;-71
2021/03/19 09:01:54;;;;;;;51.80;17.37;;;;;;;6.44;60.91;100554.08;1832300;78;20928;-69
2021/03/19 09:04:54;;;;;;;59.85;16.70;;;;;;;6.47;60.52;100555.27;1832481;78;20923;-70
2021/03/19 09:07:32;;;;;;;62.83;17.20;;;;;;;6.43;60.69;100562.35;1832383;78;21471;-69
2021/03/19 09:10:26;;;;;;;56.73;18.37;;;;;;;6.46;60.77;100561.37;1832320;78;21009;-70
2021/03/19 09:13:07;;;;;;;54.42;19.15;;;;;;;6.52;59.77;100563.71;1832665;78;20890;-70
2021/03/19 09:15:34;;;;;;;60.75;20.40;;;;;;;6.46;59.75;100570.95;1828751;78;21086;-69
2021/03/19 09:18:07;;;;;;;60.30;20.52;;;;;;;6.39;59.85;100572.52;1832433;77;21400;-70
2021/03/19 09:20:58;;;;;;;56.33;17.33;;;;;;;6.42;59.64;100564.58;1832691;78;21374;-70
2021/03/19 09:24:04;;;;;;;48.98;17.52;;;;;;;6.59;59.64;100569.03;1832296;78;20891;-70
2021/03/19 09:26:52;;;;;;;60.38;19.37;;;;;;;6.77;59.38;100566.52;1832354;78;21001;-70
2021/03/19 09:29:25;;;;;;;57.90;20.12;;;;;;;6.81;58.76;100567.62;1832384;77;20989;-71
2021/03/19 09:31:59;;;;;;;58.92;20.80;;;;;;;6.77;58.55;100572.58;1832421;77;21541;-69
2021/03/19 09:34:46;;;;;;;54.23;18.50;;;;;;;6.71;59.11;100574.61;1832415;78;21354;-69
2021/03/19 09:37:39;;;;;;;35.35;15.83;;;;;;;6.76;59.16;100563.52;1822044;77;21372;-68
2021/03/19 09:40:33;;;;;;;37.37;15.30;;;;;;;6.83;58.69;100568.86;1817608;79;20938;-71
2021/03/19 09:43:02;;;;;;;50.60;14.87;;;;;;;6.99;58.13;100573.75;1786773;78;20994;-69
2021/03/19 09:45:34;;;;;;;47.10;13.95;;;;;;;7.13;57.75;100574.41;1817327;79;21404;-69
2021/03/19 09:48:13;;;;;;;36.35;14.80;;;;;;;7.28;57.35;100567.64;1817122;79;21334;-69
2021/03/19 09:50:57;;;;;;;43.13;14.38;;;;;;;7.40;56.98;100564.47;1817212;79;20998;-69
2021/03/19 09:53:30;;;;;;;48.63;14.83;;;;;;;7.52;56.26;100570.86;1817156;79;20946;-71
2021/03/19 09:56:02;;;;;;;43.80;12.78;;;;;;;7.60;56.20;100571.77;1817319;79;21476;-69
2021/03/19 09:58:44;;;;;;;45.20;12.85;;;;;;;7.67;55.47;100578.41;1817407;79;21566;-68
2021/03/19 10:01:30;;;;;;;44.73;14.60;;;;;;;7.64;55.52;100578.55;1817128;79;22299;-70
2021/03/19 10:04:05;;;;;;;36.60;12.90;;;;;;;7.58;55.22;100582.74;1817210;79;20923;-69
2021/03/19 10:06:41;;;;;;;44.77;14.35;;;;;;;7.44;54.96;100576.42;1817295;78;20979;-68
2021/03/19 10:09:19;;;;;;;41.55;13.10;;;;;;;7.38;55.04;100579.78;1816920;79;20978;-68
2021/03/19 10:12:16;;;;;;;42.50;13.48;;;;;;;7.50;54.57;100580.98;1817263;79;20883;-70
2021/03/19 10:14:52;;;;;;;31.70;10.82;;;;;;;7.69;54.52;100577.84;1817298;79;21376;-68
2021/03/19 10:17:29;;;;;;;27.30;10.53;;;;;;;7.98;53.66;100579.05;1817223;78;21025;-69
2021/03/19 10:20:22;;;;;;;40.17;10.65;;;;;;;8.20;52.54;100577.95;1817215;79;20994;-70
2021/03/19 10:22:56;;;;;;;33.20;11.57;;;;;;;8.44;51.67;100575.89;1817288;79;21436;-68
2021/03/19 10:25:28;;;;;;;41.18;11.85;;;;;;;8.67;50.71;100578.59;1817564;79;21451;-71
2021/03/19 10:28:06;;;;;;;40.95;12.58;;;;;;;8.84;51.01;100574.62;1815746;79;21361;-69
2021/03/19 10:30:53;;;;;;;36.53;11.33;;;;;;;9.04;50.58;100572.71;1817175;79;20939;-70
2021/03/19 10:33:40;;;;;;;36.33;11.57;;;;;;;9.10;50.14;100573.22;1817200;77;20978;-69
2021/03/19 10:36:15;;;;;;;32.40;10.98;;;;;;;9.26;50.73;100565.84;1817179;77;21408;-69
2021/03/19 10:38:54;;;;;;;37.53;10.72;;;;;;;9.42;49.42;100571.90;1831787;78;20954;-71
2021/03/19 10:41:47;;;;;;;38.05;9.43;;;;;;;9.54;50.10;100572.53;1832336;78;21345;-72
2021/03/19 10:44:26;;;;;;;28.02;10.25;;;;;;;9.68;48.78;100566.50;1832324;78;21432;-70
2021/03/19 10:47:18;;;;;;;31.65;9.15;;;;;;;9.78;48.36;100560.27;1832237;78;20957;-69
2021/03/19 10:49:57;;;;;;;31.50;9.98;;;;;;;9.77;47.94;100561.69;1832418;77;20926;-70
2021/03/19 10:52:39;;;;;;;20.05;8.30;;;;;;;9.80;47.99;100554.95;1832270;78;20934;-71
2021/03/19 10:55:18;;;;;;;33.33;10.23;;;;;;;9.90;47.88;100554.80;1832404;78;22163;-70
2021/03/19 10:57:46;;;;;;;25.27;8.93;;;;;;;9.98;46.70;100560.89;1832212;77;20930;-69
2021/03/19 11:00:39;;;;;;;22.58;8.70;;;;;;;9.85;45.46;100550.28;1805117;78;20945;-69
2021/03/19 11:03:07;;;;;;;34.55;9.15;;;;;;;9.67;46.33;100554.80;1797528;78;21046;-72
2021/03/19 11:05:59;;;;;;;22.42;8.38;;;;;;;9.55;46.28;100553.73;1797800;79;20966;-71
2021/03/19 11:08:41;;;;;;;26.20;7.85;;;;;;;9.63;45.80;100550.70;1845932;76;22721;-70
2021/03/19 11:11:09;;;;;;;27.98;7.65;;;;;;;9.63;46.12;100551.53;1818094;79;21400;-69
2021/03/19 11:13:38;;;;;;;28.73;7.65;;;;;;;9.69;45.65;100549.88;1817995;79;22374;-72
2021/03/19 11:16:13;;;;;;;27.27;6.67;;;;;;;9.78;44.66;100553.72;1817889;79;20942;-70
2021/03/19 11:18:42;;;;;;;19.05;7.17;;;;;;;9.93;44.52;100546.75;1812694;79;20879;-69
2021/03/19 11:21:19;;;;;;;25.57;7.33;;;;;;;10.03;43.72;100548.39;1817961;77;20962;-73
2021/03/19 11:24:04;;;;;;;31.10;8.90;;;;;;;10.15;44.33;100543.72;1818004;79;20935;-71
2021/03/19 11:26:34;;;;;;;26.07;7.55;;;;;;;10.46;43.32;100541.43;1818109;79;21018;-70
2021/03/19 11:29:20;;;;;;;28.42;6.85;;;;;;;10.77;43.01;100542.17;1817853;77;20911;-72
2021/03/19 11:32:15;;;;;;;24.27;6.22;;;;;;;10.92;42.35;100540.39;1817927;79;20994;-71
2021/03/19 11:34:55;;;;;;;22.07;6.45;;;;;;;10.90;41.88;100537.85;1817931;79;21360;-72
2021/03/19 11:37:29;;;;;;;33.53;6.83;;;;;;;10.99;42.56;100537.27;1817996;78;21471;-72
2021/03/19 11:40:18;;;;;;;20.92;6.85;;;;;;;11.26;42.84;100538.24;1818103;78;21359;-71
2021/03/19 11:43:00;;;;;;;20.17;6.70;;;;;;;11.27;42.19;100535.53;1794957;79;20923;-71
2021/03/19 11:45:30;;;;;;;30.02;7.55;;;;;;;11.17;41.76;100539.20;1817947;79;21037;-73
2021/03/19 11:48:16;;;;;;;25.37;6.92;;;;;;;10.97;42.60;100538.31;1817863;79;21006;-76
2021/03/19 11:50:49;;;;;;;26.95;7.35;;;;;;;10.91;42.40;100541.31;1818058;79;20879;-72
2021/03/19 11:53:25;;;;;;;26.33;6.55;;;;;;;10.88;42.49;100542.83;1817249;79;22260;-72
2021/03/19 11:56:57;;;;;;;36.28;8.05;;;;;;;10.98;42.23;100539.98;1816050;79;22490;-70
2021/03/19 11:59:25;;;;;;;33.00;7.22;;;;;;;10.76;41.62;100545.28;1789101;79;20997;-69
2021/03/19 12:01:55;;;;;;;23.52;6.90;;;;;;;10.49;42.25;100543.89;1789012;79;21256;-71
2021/03/19 12:04:23;;;;;;;24.70;6.45;;;;;;;10.28;43.12;100553.84;1789048;80;20926;-70
2021/03/19 12:06:52;;;;;;;25.92;7.65;;;;;;;10.13;43.16;100552.13;1789136;80;20953;-71
2021/03/19 12:09:20;;;;;;;36.68;7.75;;;;;;;9.98;43.83;100549.09;1789019;80;20921;-74
2021/03/19 12:11:48;;;;;;;35.70;6.83;;;;;;;9.93;43.75;100554.61;1789124;80;20922;-72
2021/03/19 12:14:24;;;;;;;26.75;6.30;;;;;;;9.86;44.56;100565.08;1789102;80;22204;-73